createdAt,value
2018-05-12T00:00:05.333Z,79.35
2018-05-12T00:01:05.325Z,79.63
2018-05-12T00:02:05.318Z,79.82
2018-05-12T00:03:05.311Z,80.68
2018-05-12T00:04:05.302Z,79.63
2018-05-12T00:05:05.294Z,80.39
2018-05-12T00:06:05.286Z,80.77
2018-05-12T00:07:05.284Z,80.58
2018-05-12T00:08:05.270Z,80.68
2018-05-12T00:09:05.262Z,79.82
2018-05-12T00:10:05.255Z,79.63
2018-05-12T00:11:05.248Z,80.49
2018-05-12T00:12:05.239Z,80.49
2018-05-12T00:13:05.230Z,81.06
2018-05-12T00:14:05.223Z,80.87
2018-05-12T00:15:05.293Z,80.58
2018-05-12T00:16:05.207Z,80.87
2018-05-12T00:17:05.199Z,80.87
2018-05-12T00:18:05.191Z,80.30
2018-05-12T00:19:05.184Z,80.87
2018-05-12T00:20:05.175Z,81.35
2018-05-12T00:21:05.167Z,80.39
2018-05-12T00:22:05.159Z,80.68
2018-05-12T00:23:05.152Z,80.58
2018-05-12T00:24:05.144Z,81.06
2018-05-12T00:25:05.135Z,81.35
2018-05-12T00:26:05.129Z,81.63
2018-05-12T00:27:05.120Z,81.35
2018-05-12T00:28:05.112Z,82.30
2018-05-12T00:29:05.106Z,82.11
2018-05-12T00:30:05.095Z,82.01
2018-05-12T00:31:05.088Z,81.73
2018-05-12T00:32:05.080Z,81.63
2018-05-12T00:33:05.071Z,81.73
2018-05-12T00:34:05.064Z,82.30
2018-05-12T00:35:05.056Z,82.59
2018-05-12T00:36:05.048Z,82.78
2018-05-12T00:37:05.039Z,83.06
2018-05-12T00:38:05.032Z,82.68
2018-05-12T00:39:05.024Z,82.49
2018-05-12T00:40:05.016Z,82.68
2018-05-12T00:41:05.008Z,82.59
2018-05-12T00:42:05.005Z,82.87
2018-05-12T00:43:05.040Z,83.16
2018-05-12T00:44:04.984Z,82.97
2018-05-12T00:45:04.976Z,84.07
2018-05-12T00:46:04.968Z,84.36
2018-05-12T00:47:04.959Z,84.64
2018-05-12T00:48:04.952Z,84.92
2018-05-12T00:49:04.943Z,84.64
2018-05-12T00:50:04.936Z,84.45
2018-05-12T00:51:04.928Z,84.92
2018-05-12T00:52:04.920Z,85.02
2018-05-12T00:53:04.911Z,85.12
2018-05-12T00:54:04.903Z,85.88
2018-05-12T00:55:04.896Z,85.50
2018-05-12T00:56:04.888Z,85.78
2018-05-12T00:57:04.881Z,85.78
2018-05-12T00:58:04.872Z,85.31
2018-05-12T00:59:04.864Z,85.12
2018-05-12T01:00:04.856Z,85.60
2018-05-12T01:01:04.848Z,84.97
2018-05-12T01:02:04.840Z,84.78
2018-05-12T01:03:04.836Z,85.45
2018-05-12T01:04:04.824Z,85.45
2018-05-12T01:05:04.816Z,85.16
2018-05-12T01:06:04.808Z,85.25
2018-05-12T01:07:04.800Z,85.35
2018-05-12T01:08:04.793Z,85.83
2018-05-12T01:09:04.784Z,85.64
2018-05-12T01:10:04.777Z,85.54
2018-05-12T01:11:04.769Z,85.25
2018-05-12T01:12:04.761Z,85.35
2018-05-12T01:13:04.752Z,85.54
2018-05-12T01:14:04.745Z,85.16
2018-05-12T01:15:04.737Z,86.11
2018-05-12T01:16:04.729Z,85.45
2018-05-12T01:17:04.727Z,85.25
2018-05-12T01:18:04.713Z,85.64
2018-05-12T01:19:04.705Z,85.45
2018-05-12T01:20:04.697Z,85.06
2018-05-12T01:21:04.689Z,86.02
2018-05-12T01:22:04.681Z,85.45
2018-05-12T01:23:04.674Z,84.88
2018-05-12T01:24:04.667Z,84.20
2018-05-12T01:25:04.657Z,84.69
2018-05-12T01:26:04.653Z,83.44
2018-05-12T01:27:04.642Z,83.83
2018-05-12T01:28:04.638Z,83.35
2018-05-12T01:29:04.625Z,83.06
2018-05-12T01:30:04.618Z,82.87
2018-05-12T01:31:04.611Z,83.35
2018-05-12T01:32:04.603Z,83.35
2018-05-12T01:33:04.594Z,84.30
2018-05-12T01:34:04.586Z,83.73
2018-05-12T01:35:04.578Z,84.30
2018-05-12T01:36:04.570Z,85.16
2018-05-12T01:37:04.562Z,84.78
2018-05-12T01:38:04.554Z,84.97
2018-05-12T01:39:04.546Z,84.97
2018-05-12T01:40:04.539Z,85.83
2018-05-12T01:41:04.529Z,85.73
2018-05-12T01:42:04.521Z,85.25
2018-05-12T01:43:04.515Z,86.11
2018-05-12T01:44:04.507Z,85.35
2018-05-12T01:45:04.497Z,85.83
2018-05-12T01:46:04.490Z,85.54
2018-05-12T01:47:04.482Z,85.45
2018-05-12T01:48:04.474Z,85.54
2018-05-12T01:49:04.466Z,85.16
2018-05-12T01:50:04.456Z,84.97
2018-05-12T01:51:04.450Z,84.49
2018-05-12T01:52:04.441Z,84.88
2018-05-12T01:53:04.432Z,84.88
2018-05-12T01:54:04.424Z,84.78
2018-05-12T01:55:04.417Z,84.78
2018-05-12T01:56:04.409Z,84.97
2018-05-12T01:57:04.399Z,84.88
2018-05-12T01:58:04.392Z,85.64
2018-05-12T01:59:04.383Z,85.35
2018-05-12T02:00:04.376Z,85.25
2018-05-12T02:01:04.368Z,85.93
2018-05-12T02:02:04.359Z,85.35
2018-05-12T02:03:04.351Z,86.30
2018-05-12T02:04:04.344Z,86.30
2018-05-12T02:05:04.334Z,86.02
2018-05-12T02:06:04.326Z,86.02
2018-05-12T02:07:04.320Z,85.54
2018-05-12T02:08:04.311Z,85.54
2018-05-12T02:09:04.302Z,85.54
2018-05-12T02:10:04.294Z,86.11
2018-05-12T02:11:04.285Z,86.59
2018-05-12T02:12:04.277Z,86.69
2018-05-12T02:13:04.268Z,87.40
2018-05-12T02:14:04.261Z,87.40
2018-05-12T02:15:04.255Z,87.79
2018-05-12T02:16:04.245Z,87.21
2018-05-12T02:17:04.235Z,87.50
2018-05-12T02:18:04.230Z,87.21
2018-05-12T02:19:04.220Z,86.83
2018-05-12T02:20:04.299Z,86.65
2018-05-12T02:21:04.202Z,86.93
2018-05-12T02:22:04.194Z,86.93
2018-05-12T02:23:04.187Z,87.21
2018-05-12T02:24:04.178Z,87.40
2018-05-12T02:25:04.169Z,87.40
2018-05-12T02:26:04.161Z,87.50
2018-05-12T02:27:04.154Z,87.31
2018-05-12T02:28:04.146Z,87.60
2018-05-12T02:29:04.136Z,87.21
2018-05-12T02:30:04.129Z,87.21
2018-05-12T02:31:04.122Z,87.31
2018-05-12T02:32:04.112Z,87.50
2018-05-12T02:33:04.106Z,87.69
2018-05-12T02:34:04.095Z,87.88
2018-05-12T02:35:04.088Z,87.98
2018-05-12T02:36:04.079Z,88.17
2018-05-12T02:37:04.070Z,88.36
2018-05-12T02:38:04.062Z,87.79
2018-05-12T02:39:04.054Z,88.17
2018-05-12T02:40:04.046Z,87.88
2018-05-12T02:41:04.037Z,87.60
2018-05-12T02:42:04.028Z,88.07
2018-05-12T02:43:04.021Z,88.17
2018-05-12T02:44:04.013Z,88.26
2018-05-12T02:45:04.003Z,88.17
2018-05-12T02:46:04.002Z,88.64
2018-05-12T02:47:03.987Z,88.64
2018-05-12T02:48:03.979Z,88.84
2018-05-12T02:49:03.969Z,89.22
2018-05-12T02:50:03.962Z,89.79
2018-05-12T02:51:03.953Z,89.55
2018-05-12T02:52:03.949Z,89.75
2018-05-12T02:53:03.936Z,89.65
2018-05-12T02:54:03.927Z,90.03
2018-05-12T02:55:03.920Z,90.03
2018-05-12T02:56:03.915Z,90.12
2018-05-12T02:57:03.904Z,90.22
2018-05-12T02:58:03.903Z,90.89
2018-05-12T02:59:03.887Z,91.17
2018-05-12T03:00:03.879Z,90.79
2018-05-12T03:01:03.869Z,91.08
2018-05-12T03:02:03.872Z,91.27
2018-05-12T03:03:03.853Z,91.55
2018-05-12T03:04:03.849Z,91.46
2018-05-12T03:05:03.837Z,92.22
2018-05-12T03:06:03.828Z,91.74
2018-05-12T03:07:03.820Z,91.74
2018-05-12T03:08:03.811Z,91.94
2018-05-12T03:09:03.803Z,91.84
2018-05-12T03:10:03.794Z,92.13
2018-05-12T03:11:03.786Z,91.84
2018-05-12T03:12:03.778Z,92.13
2018-05-12T03:13:03.769Z,92.13
2018-05-12T03:14:03.762Z,91.94
2018-05-12T03:15:03.752Z,91.55
2018-05-12T03:16:03.745Z,92.60
2018-05-12T03:17:03.735Z,92.32
2018-05-12T03:18:03.726Z,92.22
2018-05-12T03:19:03.720Z,92.22
2018-05-12T03:20:03.713Z,92.60
2018-05-12T03:21:03.701Z,92.13
2018-05-12T03:22:03.693Z,92.32
2018-05-12T03:23:03.687Z,92.50
2018-05-12T03:24:03.677Z,92.32
2018-05-12T03:25:03.667Z,92.50
2018-05-12T03:26:03.659Z,91.94
2018-05-12T03:27:03.650Z,92.50
2018-05-12T03:28:03.642Z,91.94
2018-05-12T03:29:03.633Z,92.03
2018-05-12T03:30:03.625Z,91.94
2018-05-12T03:31:03.618Z,92.03
2018-05-12T03:32:03.608Z,91.74
2018-05-12T03:33:03.599Z,92.13
2018-05-12T03:34:03.590Z,91.74
2018-05-12T03:35:03.582Z,92.32
2018-05-12T03:36:03.576Z,92.32
2018-05-12T03:37:03.565Z,91.84
2018-05-12T03:38:03.556Z,91.94
2018-05-12T03:39:03.548Z,91.84
2018-05-12T03:40:03.540Z,91.84
2018-05-12T03:41:03.531Z,91.84
2018-05-12T03:42:03.522Z,91.84
2018-05-12T03:43:03.513Z,92.32
2018-05-12T03:44:03.506Z,91.74
2018-05-12T03:45:03.496Z,92.32
2018-05-12T03:46:03.488Z,92.50
2018-05-12T03:47:03.479Z,92.32
2018-05-12T03:48:03.471Z,92.22
2018-05-12T03:49:03.462Z,92.60
2018-05-12T03:50:03.453Z,92.41
2018-05-12T03:51:03.445Z,92.69
2018-05-12T03:52:03.437Z,92.60
2018-05-12T03:53:03.431Z,92.46
2018-05-12T03:54:03.419Z,92.13
2018-05-12T03:55:03.471Z,92.22
2018-05-12T03:56:03.402Z,92.32
2018-05-12T03:57:03.393Z,92.60
2018-05-12T03:58:03.385Z,92.13
2018-05-12T03:59:03.376Z,92.41
2018-05-12T04:00:03.454Z,91.94
2018-05-12T04:01:03.359Z,91.84
2018-05-12T04:02:03.351Z,92.32
2018-05-12T04:03:03.342Z,92.22
2018-05-12T04:04:03.334Z,92.60
2018-05-12T04:05:03.325Z,92.22
2018-05-12T04:06:03.316Z,92.32
2018-05-12T04:07:03.308Z,92.50
2018-05-12T04:08:03.300Z,92.89
2018-05-12T04:09:03.290Z,92.22
2018-05-12T04:10:03.281Z,92.79
2018-05-12T04:11:03.273Z,92.50
2018-05-12T04:12:03.265Z,92.69
2018-05-12T04:13:03.256Z,92.41
2018-05-12T04:14:03.248Z,91.84
2018-05-12T04:15:03.239Z,92.03
2018-05-12T04:16:03.231Z,91.84
2018-05-12T04:17:03.250Z,91.94
2018-05-12T04:18:03.213Z,91.74
2018-05-12T04:19:03.205Z,92.32
2018-05-12T04:20:03.197Z,91.94
2018-05-12T04:21:03.211Z,92.32
2018-05-12T04:22:03.179Z,92.60
2018-05-12T04:23:03.170Z,92.98
2018-05-12T04:24:03.163Z,92.79
2018-05-12T04:25:03.153Z,92.41
2018-05-12T04:26:03.145Z,93.17
2018-05-12T04:27:03.136Z,92.60
2018-05-12T04:28:03.128Z,92.50
2018-05-12T04:29:03.118Z,92.69
2018-05-12T04:30:03.110Z,92.32
2018-05-12T04:31:03.102Z,92.32
2018-05-12T04:32:03.094Z,92.41
2018-05-12T04:33:03.084Z,91.74
2018-05-12T04:34:03.076Z,91.84
2018-05-12T04:35:03.068Z,92.41
2018-05-12T04:36:03.059Z,91.65
2018-05-12T04:37:03.055Z,92.03
2018-05-12T04:38:03.041Z,91.84
2018-05-12T04:39:03.034Z,91.74
2018-05-12T04:40:03.025Z,90.60
2018-05-12T04:41:03.016Z,90.70
2018-05-12T04:42:03.070Z,89.98
2018-05-12T04:43:02.999Z,89.69
2018-05-12T04:44:02.991Z,89.60
2018-05-12T04:45:02.982Z,89.40
2018-05-12T04:46:02.972Z,89.69
2018-05-12T04:47:02.964Z,89.12
2018-05-12T04:48:02.956Z,89.50
2018-05-12T04:49:02.947Z,89.31
2018-05-12T04:50:02.938Z,89.12
2018-05-12T04:51:02.930Z,89.12
2018-05-12T04:52:02.921Z,89.31
2018-05-12T04:53:02.911Z,89.31
2018-05-12T04:54:02.904Z,89.40
2018-05-12T04:55:02.897Z,89.40
2018-05-12T04:56:02.887Z,88.64
2018-05-12T04:57:02.880Z,89.03
2018-05-12T04:58:02.869Z,88.84
2018-05-12T04:59:02.863Z,88.40
2018-05-12T05:00:02.853Z,88.69
2018-05-12T05:01:02.843Z,88.88
2018-05-12T05:02:02.836Z,88.69
2018-05-12T05:03:02.830Z,88.40
2018-05-12T05:04:02.820Z,88.31
2018-05-12T05:05:02.814Z,88.21
2018-05-12T05:06:02.803Z,88.12
2018-05-12T05:07:02.795Z,87.74
2018-05-12T05:08:02.788Z,87.74
2018-05-12T05:09:02.781Z,87.26
2018-05-12T05:10:02.771Z,86.78
2018-05-12T05:11:02.762Z,86.78
2018-05-12T05:12:02.762Z,86.25
2018-05-12T05:13:02.747Z,86.54
2018-05-12T05:14:02.737Z,86.35
2018-05-12T05:15:02.730Z,85.97
2018-05-12T05:16:02.722Z,86.06
2018-05-12T05:17:02.713Z,85.58
2018-05-12T05:18:02.705Z,85.91
2018-05-12T05:19:02.698Z,85.44
2018-05-12T05:20:02.692Z,85.44
2018-05-12T05:21:02.681Z,85.34
2018-05-12T05:22:02.674Z,84.77
2018-05-12T05:23:02.666Z,84.58
2018-05-12T05:24:02.659Z,84.29
2018-05-12T05:25:02.650Z,84.58
2018-05-12T05:26:02.643Z,83.91
2018-05-12T05:27:02.635Z,84.67
2018-05-12T05:28:02.628Z,84.33
2018-05-12T05:29:02.619Z,84.62
2018-05-12T05:30:02.612Z,83.57
2018-05-12T05:31:02.605Z,83.18
2018-05-12T05:32:02.598Z,83.28
2018-05-12T05:33:02.590Z,83.28
2018-05-12T05:34:02.583Z,82.71
2018-05-12T05:35:02.575Z,83.28
2018-05-12T05:36:02.572Z,82.65
2018-05-12T05:37:02.562Z,82.84
2018-05-12T05:38:02.555Z,82.94
2018-05-12T05:39:02.548Z,82.46
2018-05-12T05:40:02.541Z,82.46
2018-05-12T05:41:02.537Z,82.08
2018-05-12T05:42:02.525Z,82.08
2018-05-12T05:43:02.521Z,81.84
2018-05-12T05:44:02.514Z,81.84
2018-05-12T05:45:02.506Z,81.45
2018-05-12T05:46:02.499Z,81.36
2018-05-12T05:47:02.496Z,81.26
2018-05-12T05:48:02.487Z,81.36
2018-05-12T05:49:02.479Z,81.84
2018-05-12T05:50:02.473Z,80.92
2018-05-12T05:51:02.467Z,80.63
2018-05-12T05:52:02.462Z,80.25
2018-05-12T05:53:02.455Z,81.68
2018-05-12T05:54:02.449Z,81.30
2018-05-12T05:55:02.444Z,80.06
2018-05-12T05:56:02.438Z,79.77
2018-05-12T05:57:02.432Z,80.00
2018-05-12T05:58:02.427Z,79.62
2018-05-12T05:59:02.421Z,80.29
2018-05-12T06:00:02.417Z,81.44
2018-05-12T06:01:02.410Z,80.38
2018-05-12T06:02:02.407Z,79.57
2018-05-12T06:03:02.400Z,77.94
2018-05-12T06:04:02.400Z,79.18
2018-05-12T06:05:02.392Z,79.18
2018-05-12T06:06:02.388Z,77.84
2018-05-12T06:07:02.388Z,77.94
2018-05-12T06:08:02.380Z,78.32
2018-05-12T06:09:02.371Z,78.74
2018-05-12T06:10:02.365Z,79.22
2018-05-12T06:11:02.364Z,79.99
2018-05-12T06:12:02.358Z,81.52
2018-05-12T06:13:02.351Z,80.08
2018-05-12T06:14:02.348Z,78.93
2018-05-12T06:15:02.344Z,78.27
2018-05-12T06:16:02.343Z,78.17
2018-05-12T06:17:02.337Z,78.45
2018-05-12T06:18:02.346Z,79.03
2018-05-12T06:19:02.327Z,78.36
2018-05-12T06:20:02.322Z,77.97
2018-05-12T06:21:02.318Z,77.78
2018-05-12T06:22:02.315Z,78.17
2018-05-12T06:23:02.403Z,78.27
2018-05-12T06:24:02.306Z,78.20
2018-05-12T06:25:02.309Z,78.07
2018-05-12T06:26:02.298Z,78.20
2018-05-12T06:27:02.296Z,78.74
2018-05-12T06:28:02.297Z,79.55
2018-05-12T06:29:02.285Z,79.55
2018-05-12T06:30:02.282Z,79.64
2018-05-12T06:31:02.283Z,78.97
2018-05-12T06:32:02.275Z,78.11
2018-05-12T06:33:02.271Z,78.20
2018-05-12T06:34:02.267Z,78.20
2018-05-12T06:35:02.264Z,78.59
2018-05-12T06:36:02.261Z,77.44
2018-05-12T06:37:02.255Z,77.73
2018-05-12T06:38:02.254Z,77.92
2018-05-12T06:39:02.249Z,78.40
2018-05-12T06:40:02.245Z,79.93
2018-05-12T06:41:02.242Z,78.25
2018-05-12T06:42:02.237Z,79.11
2018-05-12T06:43:02.234Z,78.53
2018-05-12T06:44:02.233Z,78.25
2018-05-12T06:45:02.227Z,79.01
2018-05-12T06:46:02.224Z,78.82
2018-05-12T06:47:02.221Z,77.95
2018-05-12T06:48:02.223Z,77.86
2018-05-12T06:49:02.288Z,76.94
2018-05-12T06:50:02.212Z,76.75
2018-05-12T06:51:02.214Z,76.75
2018-05-12T06:52:02.205Z,78.19
2018-05-12T06:53:02.201Z,75.63
2018-05-12T06:54:02.204Z,75.73
2018-05-12T06:55:02.197Z,77.17
2018-05-12T06:56:02.196Z,74.58
2018-05-12T06:57:02.189Z,73.43
2018-05-12T06:58:02.187Z,72.75
2018-05-12T06:59:02.185Z,73.24
2018-05-12T07:00:02.183Z,73.24
2018-05-12T07:01:02.180Z,74.58
2018-05-12T07:02:02.178Z,74.62
2018-05-12T07:03:02.175Z,75.38
2018-05-12T07:04:02.174Z,75.77
2018-05-12T07:05:02.171Z,73.66
2018-05-12T07:06:02.170Z,71.67
2018-05-12T07:07:02.168Z,70.14
2018-05-12T07:08:02.168Z,72.64
2018-05-12T07:09:02.169Z,71.77
2018-05-12T07:10:02.165Z,70.65
2018-05-12T07:11:02.165Z,71.52
2018-05-12T07:12:02.165Z,69.40
2018-05-12T07:13:02.193Z,68.44
2018-05-12T07:14:02.165Z,69.40
2018-05-12T07:15:02.173Z,69.06
2018-05-12T07:16:02.168Z,68.09
2018-05-12T07:17:02.169Z,69.47
2018-05-12T07:18:02.174Z,68.60
2018-05-12T07:19:02.175Z,66.33
2018-05-12T07:20:02.179Z,65.46
2018-05-12T07:21:02.184Z,61.74
2018-05-12T07:22:02.186Z,61.83
2018-05-12T07:23:02.191Z,63.38
2018-05-12T07:24:02.196Z,61.68
2018-05-12T07:25:02.200Z,62.83
2018-05-12T07:26:02.206Z,60.93
2018-05-12T07:27:02.211Z,58.62
2018-05-12T07:28:02.217Z,58.23
2018-05-12T07:29:02.226Z,58.30
2018-05-12T07:30:02.229Z,57.46
2018-05-12T07:31:02.236Z,56.49
2018-05-12T07:32:02.245Z,57.94
2018-05-12T07:33:02.250Z,58.52
2018-05-12T07:34:02.259Z,58.42
2018-05-12T07:35:02.267Z,56.14
2018-05-12T07:36:02.271Z,57.37
2018-05-12T07:37:02.284Z,59.23
2018-05-12T07:38:02.284Z,58.33
2018-05-12T07:39:02.378Z,56.49
2018-05-12T07:40:02.299Z,55.44
2018-05-12T07:41:02.305Z,54.18
2018-05-12T07:42:02.313Z,55.44
2018-05-12T07:43:02.319Z,56.88
2018-05-12T07:44:02.326Z,56.33
2018-05-12T07:45:02.407Z,58.48
2018-05-12T07:46:02.341Z,56.84
2018-05-12T07:47:02.348Z,58.97
2018-05-12T07:48:02.356Z,54.84
2018-05-12T07:49:02.364Z,51.75
2018-05-12T07:50:02.379Z,54.10
2018-05-12T07:51:02.381Z,52.75
2018-05-12T07:52:02.390Z,50.04
2018-05-12T07:53:02.400Z,49.07
2018-05-12T07:54:02.423Z,52.48
2018-05-12T07:55:02.417Z,51.13
2018-05-12T07:56:02.427Z,51.03
2018-05-12T07:57:02.501Z,50.35
2018-05-12T07:58:02.444Z,46.88
2018-05-12T07:59:02.455Z,45.23
2018-05-12T08:00:02.464Z,43.47
2018-05-12T08:01:02.472Z,47.05
2018-05-12T08:02:02.482Z,48.49
2018-05-12T08:03:02.491Z,46.47
2018-05-12T08:04:02.499Z,48.21
2018-05-12T08:05:02.508Z,48.01
2018-05-12T08:06:02.517Z,49.10
2018-05-12T08:07:02.528Z,43.49
2018-05-12T08:08:02.536Z,44.36
2018-05-12T08:09:02.544Z,42.62
2018-05-12T08:10:02.554Z,44.09
2018-05-12T08:11:02.563Z,45.35
2018-05-12T08:12:02.573Z,42.55
2018-05-12T08:13:02.582Z,43.44
2018-05-12T08:14:02.594Z,44.21
2018-05-12T08:15:02.606Z,42.96
2018-05-12T08:16:02.613Z,44.40
2018-05-12T08:17:02.626Z,42.78
2018-05-12T08:18:02.632Z,42.49
2018-05-12T08:19:02.643Z,39.01
2018-05-12T08:20:02.657Z,38.62
2018-05-12T08:21:02.665Z,41.45
2018-05-12T08:22:02.675Z,39.88
2018-05-12T08:23:02.687Z,42.30
2018-05-12T08:24:02.698Z,38.81
2018-05-12T08:25:02.708Z,40.15
2018-05-12T08:26:02.767Z,42.37
2018-05-12T08:27:02.729Z,41.99
2018-05-12T08:28:02.741Z,41.99
2018-05-12T08:29:02.750Z,42.59
2018-05-12T08:30:02.810Z,39.97
2018-05-12T08:31:02.772Z,40.65
2018-05-12T08:32:02.783Z,38.53
2018-05-12T08:33:02.798Z,40.77
2018-05-12T08:34:02.804Z,39.32
2018-05-12T08:35:02.815Z,36.60
2018-05-12T08:36:02.828Z,38.83
2018-05-12T08:37:02.841Z,37.77
2018-05-12T08:38:02.848Z,37.19
2018-05-12T08:39:02.860Z,37.87
2018-05-12T08:40:02.872Z,37.67
2018-05-12T08:41:02.882Z,38.45
2018-05-12T08:42:02.897Z,37.77
2018-05-12T08:43:02.907Z,36.51
2018-05-12T08:44:02.919Z,36.22
2018-05-12T08:45:02.930Z,36.10
2018-05-12T08:46:02.942Z,36.68
2018-05-12T08:47:02.954Z,38.53
2018-05-12T08:48:02.965Z,38.71
2018-05-12T08:49:02.976Z,37.55
2018-05-12T08:50:02.988Z,37.75
2018-05-12T08:51:02.999Z,36.38
2018-05-12T08:52:03.013Z,37.52
2018-05-12T08:53:03.021Z,38.00
2018-05-12T08:54:03.033Z,36.84
2018-05-12T08:55:03.042Z,37.13
2018-05-12T08:56:03.055Z,36.94
2018-05-12T08:57:03.062Z,37.44
2018-05-12T08:58:03.075Z,38.50
2018-05-12T08:59:03.084Z,41.14
2018-05-12T09:00:03.146Z,42.41
2018-05-12T09:01:03.106Z,40.31
2018-05-12T09:02:03.120Z,36.72
2018-05-12T09:03:03.131Z,36.54
2018-05-12T09:04:03.143Z,37.01
2018-05-12T09:05:03.154Z,37.49
2018-05-12T09:06:03.166Z,35.94
2018-05-12T09:07:03.178Z,36.43
2018-05-12T09:08:03.189Z,35.27
2018-05-12T09:09:03.200Z,37.49
2018-05-12T09:10:03.212Z,38.68
2018-05-12T09:11:03.225Z,37.71
2018-05-12T09:12:03.240Z,37.81
2018-05-12T09:13:03.248Z,37.11
2018-05-12T09:14:03.260Z,40.31
2018-05-12T09:15:03.272Z,38.83
2018-05-12T09:16:03.287Z,38.83
2018-05-12T09:17:03.293Z,40.09
2018-05-12T09:18:03.306Z,37.79
2018-05-12T09:19:03.341Z,37.96
2018-05-12T09:20:03.328Z,37.77
2018-05-12T09:21:03.347Z,36.41
2018-05-12T09:22:03.349Z,36.98
2018-05-12T09:23:03.361Z,37.87
2018-05-12T09:24:03.372Z,38.64
2018-05-12T09:25:03.381Z,37.19
2018-05-12T09:26:03.392Z,36.32
2018-05-12T09:27:03.403Z,39.82
2018-05-12T09:28:03.415Z,40.31
2018-05-12T09:29:03.425Z,39.36
2018-05-12T09:30:03.437Z,38.87
2018-05-12T09:31:03.452Z,38.68
2018-05-12T09:32:03.460Z,39.94
2018-05-12T09:33:03.471Z,39.94
2018-05-12T09:34:03.482Z,37.03
2018-05-12T09:35:03.493Z,38.27
2018-05-12T09:36:03.507Z,38.76
2018-05-12T09:37:03.515Z,38.45
2018-05-12T09:38:03.525Z,38.83
2018-05-12T09:39:03.536Z,39.41
2018-05-12T09:40:03.546Z,40.77
2018-05-12T09:41:03.557Z,40.11
2018-05-12T09:42:03.568Z,38.66
2018-05-12T09:43:03.577Z,39.22
2018-05-12T09:44:03.588Z,40.99
2018-05-12T09:45:03.599Z,41.08
2018-05-12T09:46:03.614Z,41.27
2018-05-12T09:47:03.623Z,41.78
2018-05-12T09:48:03.629Z,40.23
2018-05-12T09:49:03.639Z,40.71
2018-05-12T09:50:03.650Z,38.58
2018-05-12T09:51:03.661Z,37.03
2018-05-12T09:52:03.672Z,38.17
2018-05-12T09:53:03.682Z,39.04
2018-05-12T09:54:03.692Z,41.08
2018-05-12T09:55:03.704Z,39.45
2018-05-12T09:56:03.714Z,42.55
2018-05-12T09:57:03.724Z,41.41
2018-05-12T09:58:03.736Z,38.42
2018-05-12T09:59:03.748Z,38.91
2018-05-12T10:00:03.759Z,37.74
2018-05-12T10:01:03.769Z,37.15
2018-05-12T10:02:03.784Z,36.36
2018-05-12T10:03:03.792Z,39.95
2018-05-12T10:04:03.804Z,38.70
2018-05-12T10:05:03.818Z,37.82
2018-05-12T10:06:03.827Z,37.94
2018-05-12T10:07:03.838Z,38.62
2018-05-12T10:08:03.852Z,39.01
2018-05-12T10:09:03.864Z,39.11
2018-05-12T10:10:03.873Z,36.68
2018-05-12T10:11:03.885Z,37.35
2018-05-12T10:12:03.896Z,38.15
2018-05-12T10:13:03.907Z,36.30
2018-05-12T10:14:03.919Z,36.48
2018-05-12T10:15:03.932Z,38.52
2018-05-12T10:16:03.944Z,37.26
2018-05-12T10:17:03.957Z,35.03
2018-05-12T10:18:03.965Z,35.03
2018-05-12T10:19:03.978Z,35.21
2018-05-12T10:20:03.990Z,35.57
2018-05-12T10:21:03.999Z,38.09
2018-05-12T10:22:04.011Z,37.71
2018-05-12T10:23:04.022Z,37.73
2018-05-12T10:24:04.034Z,34.81
2018-05-12T10:25:04.045Z,35.69
2018-05-12T10:26:04.084Z,35.98
2018-05-12T10:27:04.067Z,35.98
2018-05-12T10:28:04.078Z,37.45
2018-05-12T10:29:04.088Z,37.35
2018-05-12T10:30:04.099Z,36.29
2018-05-12T10:31:04.111Z,37.35
2018-05-12T10:32:04.122Z,38.52
2018-05-12T10:33:04.132Z,39.22
2018-05-12T10:34:04.143Z,34.64
2018-05-12T10:35:04.155Z,38.32
2018-05-12T10:36:04.168Z,37.94
2018-05-12T10:37:04.177Z,38.91
2018-05-12T10:38:04.187Z,36.68
2018-05-12T10:39:04.199Z,36.08
2018-05-12T10:40:04.212Z,36.18
2018-05-12T10:41:04.220Z,35.67
2018-05-12T10:42:04.231Z,35.38
2018-05-12T10:43:04.243Z,35.38
2018-05-12T10:44:04.252Z,36.44
2018-05-12T10:45:04.261Z,38.00
2018-05-12T10:46:04.272Z,36.85
2018-05-12T10:47:04.283Z,37.24
2018-05-12T10:48:04.293Z,35.32
2018-05-12T10:49:04.304Z,36.19
2018-05-12T10:50:04.313Z,35.90
2018-05-12T10:51:04.324Z,36.02
2018-05-12T10:52:04.337Z,35.71
2018-05-12T10:53:04.344Z,35.01
2018-05-12T10:54:04.354Z,34.89
2018-05-12T10:55:04.365Z,35.38
2018-05-12T10:56:04.374Z,35.75
2018-05-12T10:57:04.385Z,37.30
2018-05-12T10:58:04.395Z,36.12
2018-05-12T10:59:04.402Z,37.09
2018-05-12T11:00:04.412Z,40.38
2018-05-12T11:01:04.420Z,40.19
2018-05-12T11:02:04.430Z,41.56
2018-05-12T11:03:04.439Z,40.91
2018-05-12T11:04:04.448Z,41.51
2018-05-12T11:05:04.456Z,39.39
2018-05-12T11:06:04.466Z,37.76
2018-05-12T11:07:04.477Z,39.34
2018-05-12T11:08:04.490Z,37.20
2018-05-12T11:09:04.496Z,36.04
2018-05-12T11:10:04.507Z,37.49
2018-05-12T11:11:04.518Z,37.10
2018-05-12T11:12:04.530Z,36.91
2018-05-12T11:13:04.539Z,35.24
2018-05-12T11:14:04.550Z,39.61
2018-05-12T11:15:04.561Z,39.12
2018-05-12T11:16:04.691Z,35.55
2018-05-12T11:17:04.582Z,36.91
2018-05-12T11:18:04.592Z,38.65
2018-05-12T11:19:04.603Z,35.25
2018-05-12T11:20:04.614Z,36.30
2018-05-12T11:21:04.630Z,38.06
2018-05-12T11:22:04.634Z,38.93
2018-05-12T11:23:04.645Z,37.08
2018-05-12T11:24:04.656Z,38.37
2018-05-12T11:25:04.666Z,36.81
2018-05-12T11:26:04.679Z,37.20
2018-05-12T11:27:04.689Z,38.09
2018-05-12T11:28:04.701Z,37.14
2018-05-12T11:29:04.711Z,32.67
2018-05-12T11:30:04.724Z,37.34
2018-05-12T11:31:04.735Z,33.44
2018-05-12T11:32:04.801Z,35.29
2018-05-12T11:33:04.758Z,34.11
2018-05-12T11:34:04.771Z,33.02
2018-05-12T11:35:04.783Z,34.38
2018-05-12T11:36:04.794Z,35.84
2018-05-12T11:37:04.806Z,37.32
2018-05-12T11:38:04.818Z,37.99
2018-05-12T11:39:04.831Z,37.34
2018-05-12T11:40:04.843Z,37.74
2018-05-12T11:41:04.856Z,36.20
2018-05-12T11:42:04.869Z,35.05
2018-05-12T11:43:04.883Z,33.11
2018-05-12T11:44:04.895Z,34.17
2018-05-12T11:45:04.908Z,34.29
2018-05-12T11:46:04.921Z,33.22
2018-05-12T11:47:04.937Z,33.51
2018-05-12T11:48:04.950Z,35.55
2018-05-12T11:49:04.963Z,33.04
2018-05-12T11:50:04.979Z,31.77
2018-05-12T11:51:04.993Z,30.80
2018-05-12T11:52:05.011Z,29.89
2018-05-12T11:53:05.020Z,31.22
2018-05-12T11:54:05.136Z,31.88
2018-05-12T11:55:05.149Z,32.86
2018-05-12T11:56:05.066Z,30.82
2018-05-12T11:57:05.075Z,31.58
2018-05-12T11:58:05.093Z,32.76
2018-05-12T11:59:05.103Z,31.60
2018-05-12T12:00:05.116Z,32.07
2018-05-12T12:01:05.132Z,34.98
2018-05-12T12:02:05.142Z,35.49
2018-05-12T12:03:05.156Z,34.43
2018-05-12T12:04:05.169Z,32.87
2018-05-12T12:05:05.185Z,31.03
2018-05-12T12:06:05.196Z,32.67
2018-05-12T12:07:05.208Z,33.06
2018-05-12T12:08:05.220Z,34.53
2018-05-12T12:09:05.232Z,33.17
2018-05-12T12:10:05.245Z,34.35
2018-05-12T12:11:05.261Z,31.35
2018-05-12T12:12:05.271Z,33.22
2018-05-12T12:13:05.284Z,30.19
2018-05-12T12:14:05.297Z,30.29
2018-05-12T12:15:05.311Z,30.87
2018-05-12T12:16:05.326Z,31.64
2018-05-12T12:17:05.342Z,30.28
2018-05-12T12:18:05.349Z,31.24
2018-05-12T12:19:05.366Z,31.92
2018-05-12T12:20:05.377Z,31.74
2018-05-12T12:21:05.390Z,30.77
2018-05-12T12:22:05.404Z,29.69
2018-05-12T12:23:05.415Z,28.64
2018-05-12T12:24:05.430Z,28.14
2018-05-12T12:25:05.440Z,29.58
2018-05-12T12:26:05.455Z,28.61
2018-05-12T12:27:05.467Z,31.73
2018-05-12T12:28:05.480Z,30.75
2018-05-12T12:29:05.496Z,31.64
2018-05-12T12:30:05.507Z,31.38
2018-05-12T12:31:05.520Z,29.63
2018-05-12T12:32:05.534Z,28.16
2018-05-12T12:33:05.553Z,30.03
2018-05-12T12:34:05.564Z,30.93
2018-05-12T12:35:05.574Z,27.33
2018-05-12T12:36:05.588Z,27.31
2018-05-12T12:37:05.603Z,27.39
2018-05-12T12:38:05.614Z,29.72
2018-05-12T12:39:05.629Z,28.16
2018-05-12T12:40:05.642Z,27.06
2018-05-12T12:41:05.654Z,29.97
2018-05-12T12:42:05.666Z,29.49
2018-05-12T12:43:05.679Z,29.10
2018-05-12T12:44:05.692Z,29.97
2018-05-12T12:45:05.799Z,31.43
2018-05-12T12:46:05.715Z,31.82
2018-05-12T12:47:05.727Z,29.86
2018-05-12T12:48:05.740Z,35.31
2018-05-12T12:49:05.751Z,30.43
2018-05-12T12:50:05.762Z,31.88
2018-05-12T12:51:05.773Z,32.28
2018-05-12T12:52:05.785Z,31.60